createdAt,value
2022-10-13T00:01:17.200Z,79.09
2022-10-13T00:03:47.517Z,78.58
2022-10-13T00:06:23.483Z,78.30
2022-10-13T00:08:51.602Z,78.26
2022-10-13T00:11:25.243Z,78.17
2022-10-13T00:13:56.879Z,78.34
2022-10-13T00:16:25.641Z,78.54
2022-10-13T00:18:53.175Z,79.31
2022-10-13T00:21:24.205Z,78.55
2022-10-13T00:23:53.355Z,77.85
2022-10-13T00:26:23.225Z,78.78
2022-10-13T00:28:52.879Z,78.56
2022-10-13T00:31:23.755Z,78.57
2022-10-13T00:33:51.888Z,78.04
2022-10-13T00:36:23.316Z,78.40
2022-10-13T00:38:52.216Z,78.57
2022-10-13T00:41:21.331Z,78.32
2022-10-13T00:44:00.004Z,78.60
2022-10-13T00:46:33.615Z,78.72
2022-10-13T00:49:11.722Z,78.35
2022-10-13T00:51:48.154Z,78.52
2022-10-13T00:54:24.198Z,78.79
2022-10-13T00:56:53.427Z,78.76
2022-10-13T00:59:29.055Z,78.75
2022-10-13T01:01:59.414Z,79.03
2022-10-13T01:04:31.238Z,78.81
2022-10-13T01:06:59.083Z,78.57
2022-10-13T01:09:26.915Z,79.54
2022-10-13T01:12:27.949Z,80.17
2022-10-13T01:15:17.282Z,78.75
2022-10-13T01:18:13.983Z,78.84
2022-10-13T01:21:19.434Z,78.94
2022-10-13T01:24:05.969Z,78.63
2022-10-13T01:26:48.749Z,79.92
2022-10-13T01:29:19.046Z,80.36
2022-10-13T01:32:16.364Z,79.66
2022-10-13T01:34:52.381Z,79.87
2022-10-13T01:37:31.103Z,79.90
2022-10-13T01:40:22.166Z,80.31
2022-10-13T01:43:08.127Z,80.12
2022-10-13T01:45:43.931Z,80.40
2022-10-13T01:48:15.450Z,79.91
2022-10-13T01:50:44.590Z,79.56
2022-10-13T01:53:13.827Z,79.88
2022-10-13T01:55:56.672Z,79.81
2022-10-13T01:58:27.327Z,79.38
2022-10-13T02:01:14.720Z,79.84
2022-10-13T02:03:48.942Z,79.51
2022-10-13T02:06:26.315Z,80.07
2022-10-13T02:09:05.585Z,80.20
2022-10-13T02:11:33.262Z,80.56
2022-10-13T02:14:08.177Z,80.19
2022-10-13T02:16:43.524Z,80.65
2022-10-13T02:19:14.723Z,79.13
2022-10-13T02:21:45.249Z,79.29
2022-10-13T02:24:13.746Z,79.98
2022-10-13T02:26:41.928Z,79.47
2022-10-13T02:29:16.833Z,79.39
2022-10-13T02:31:45.517Z,79.85
2022-10-13T02:34:13.992Z,80.07
2022-10-13T02:36:42.377Z,80.27
2022-10-13T02:39:11.081Z,79.77
2022-10-13T02:41:38.904Z,79.79
2022-10-13T02:44:07.026Z,79.93
2022-10-13T02:46:35.594Z,79.63
2022-10-13T02:49:03.118Z,80.12
2022-10-13T02:51:31.871Z,79.76
2022-10-13T02:54:01.629Z,79.96
2022-10-13T02:56:29.145Z,80.45
2022-10-13T02:58:56.620Z,79.35
2022-10-13T03:01:24.055Z,79.92
2022-10-13T03:03:51.680Z,79.71
2022-10-13T03:06:19.384Z,80.67
2022-10-13T03:08:47.060Z,79.70
2022-10-13T03:11:14.574Z,79.67
2022-10-13T03:13:42.030Z,80.36
2022-10-13T03:16:09.518Z,79.27
2022-10-13T03:18:37.186Z,80.12
2022-10-13T03:21:06.764Z,79.97
2022-10-13T03:23:34.549Z,79.54
2022-10-13T03:26:02.235Z,79.90
2022-10-13T03:28:30.047Z,79.41
2022-10-13T03:31:06.115Z,79.96
2022-10-13T03:33:33.811Z,80.19
2022-10-13T03:36:03.173Z,79.91
2022-10-13T03:38:32.307Z,79.49
2022-10-13T03:41:05.770Z,80.68
2022-10-13T03:43:33.735Z,79.63
2022-10-13T03:46:02.985Z,80.13
2022-10-13T03:48:31.421Z,79.68
2022-10-13T03:50:59.865Z,80.03
2022-10-13T03:53:28.469Z,80.03
2022-10-13T03:55:56.528Z,79.42
2022-10-13T03:58:24.953Z,78.69
2022-10-13T04:00:54.253Z,79.39
2022-10-13T04:03:21.899Z,80.53
2022-10-13T04:05:49.336Z,80.23
2022-10-13T04:08:18.506Z,79.68
2022-10-13T04:10:46.408Z,80.76
2022-10-13T04:13:13.915Z,79.54
2022-10-13T04:15:41.894Z,79.19
2022-10-13T04:18:10.764Z,81.44
2022-10-13T04:20:39.954Z,80.51
2022-10-13T04:23:08.004Z,80.36
2022-10-13T04:25:39.134Z,79.52
2022-10-13T04:28:07.309Z,79.86
2022-10-13T04:30:37.019Z,80.20
2022-10-13T04:33:07.910Z,80.20
2022-10-13T04:35:40.390Z,80.08
2022-10-13T04:38:07.964Z,80.28
2022-10-13T04:40:36.055Z,80.51
2022-10-13T04:43:03.742Z,80.33
2022-10-13T04:45:32.949Z,80.41
2022-10-13T04:48:01.227Z,80.30
2022-10-13T04:50:28.869Z,79.65
2022-10-13T04:53:01.187Z,78.86
2022-10-13T04:55:28.746Z,80.10
2022-10-13T04:57:56.205Z,79.80
2022-10-13T05:00:23.830Z,80.08
2022-10-13T05:02:51.555Z,80.74
2022-10-13T05:05:19.181Z,80.56
2022-10-13T05:07:46.775Z,80.45
2022-10-13T05:10:14.943Z,80.63
2022-10-13T05:12:42.439Z,80.52
2022-10-13T05:15:10.199Z,79.83
2022-10-13T05:17:37.730Z,81.06
2022-10-13T05:20:10.083Z,80.91
2022-10-13T05:22:37.681Z,79.61
2022-10-13T05:25:05.513Z,79.79
2022-10-13T05:27:33.116Z,79.88
2022-10-13T05:30:04.527Z,80.84
2022-10-13T05:32:32.032Z,79.79
2022-10-13T05:34:59.526Z,80.66
2022-10-13T05:37:27.108Z,80.22
2022-10-13T05:39:54.791Z,78.95
2022-10-13T05:42:22.896Z,79.65
2022-10-13T05:44:51.181Z,80.90
2022-10-13T05:47:18.758Z,79.27
2022-10-13T05:49:46.188Z,78.55
2022-10-13T05:52:13.718Z,79.06
2022-10-13T05:54:50.928Z,78.36
2022-10-13T05:57:28.976Z,78.88
2022-10-13T06:00:06.528Z,77.74
2022-10-13T06:03:03.905Z,78.08
2022-10-13T06:05:32.827Z,77.56
2022-10-13T06:08:00.786Z,76.83
2022-10-13T06:10:28.508Z,77.19
2022-10-13T06:12:55.946Z,77.07
2022-10-13T06:15:28.014Z,77.02
2022-10-13T06:17:57.182Z,76.74
2022-10-13T06:20:25.317Z,75.99
2022-10-13T06:22:54.951Z,74.53
2022-10-13T06:25:22.614Z,74.60
2022-10-13T06:27:50.345Z,73.59
2022-10-13T06:30:17.990Z,74.34
2022-10-13T06:32:45.483Z,73.77
2022-10-13T06:35:12.967Z,74.09
2022-10-13T06:37:40.452Z,72.72
2022-10-13T06:40:11.378Z,72.32
2022-10-13T06:42:38.934Z,72.14
2022-10-13T06:45:10.105Z,71.69
2022-10-13T06:47:41.044Z,71.41
2022-10-13T06:50:08.949Z,70.33
2022-10-13T06:52:37.699Z,70.49
2022-10-13T06:55:05.744Z,70.54
2022-10-13T06:57:33.900Z,69.75
2022-10-13T07:00:05.724Z,68.37
2022-10-13T07:02:34.521Z,68.62
2022-10-13T07:05:02.170Z,69.32
2022-10-13T07:07:29.782Z,69.09
2022-10-13T07:09:57.547Z,68.38
2022-10-13T07:12:57.359Z,65.90
2022-10-13T07:15:25.667Z,65.47
2022-10-13T07:17:54.981Z,60.70
2022-10-13T07:20:24.191Z,54.04
2022-10-13T07:22:54.233Z,50.19
2022-10-13T07:25:22.679Z,44.95
2022-10-13T07:27:50.183Z,42.64
2022-10-13T07:30:18.641Z,38.97
2022-10-13T07:32:48.366Z,36.46
2022-10-13T07:35:16.113Z,38.91
2022-10-13T07:37:44.873Z,37.55
2022-10-13T07:40:12.907Z,34.46
2022-10-13T07:42:40.408Z,39.71
2022-10-13T07:45:08.404Z,46.51
2022-10-13T07:47:36.034Z,45.90
2022-10-13T07:50:03.968Z,35.22
2022-10-13T07:52:31.709Z,36.92
2022-10-13T07:54:59.319Z,37.61
2022-10-13T07:57:27.740Z,36.49
2022-10-13T07:59:55.495Z,38.02
2022-10-13T08:02:23.208Z,37.25
2022-10-13T08:04:51.102Z,40.82
2022-10-13T08:07:19.205Z,36.19
2022-10-13T08:09:48.081Z,30.77
2022-10-13T08:12:15.834Z,25.69
2022-10-13T08:14:43.386Z,24.75
2022-10-13T08:17:11.390Z,22.81
2022-10-13T08:19:38.918Z,20.67
2022-10-13T08:22:09.621Z,20.56
2022-10-13T08:24:37.693Z,20.20
2022-10-13T08:27:05.179Z,18.18
2022-10-13T08:29:35.672Z,18.58
2022-10-13T08:32:03.350Z,17.29
2022-10-13T08:34:30.894Z,19.71
2022-10-13T08:37:00.251Z,18.80
2022-10-13T08:39:29.501Z,16.69
2022-10-13T08:41:57.969Z,16.12
2022-10-13T08:45:10.440Z,17.22
2022-10-13T08:47:29.451Z,18.48
2022-10-13T08:50:01.186Z,18.86
2022-10-13T08:52:41.945Z,17.96
2022-10-13T08:55:20.383Z,16.36
2022-10-13T08:57:48.148Z,17.33
2022-10-13T09:00:17.593Z,16.14
2022-10-13T09:02:50.912Z,15.05
2022-10-13T09:05:37.372Z,18.94
2022-10-13T09:08:15.707Z,20.75
2022-10-13T09:10:51.325Z,21.83
2022-10-13T09:13:20.370Z,23.17
2022-10-13T09:15:52.573Z,20.92
2022-10-13T09:18:28.780Z,17.96
2022-10-13T09:21:22.953Z,18.38
2022-10-13T09:23:52.219Z,18.88
2022-10-13T09:26:23.483Z,18.24
2022-10-13T09:28:52.638Z,23.08
2022-10-13T09:31:30.585Z,19.05
2022-10-13T09:34:09.199Z,19.87
2022-10-13T09:36:37.963Z,21.59
2022-10-13T09:39:16.459Z,24.17
2022-10-13T09:41:45.282Z,25.48
2022-10-13T09:44:33.248Z,24.24
2022-10-13T09:47:04.374Z,26.26
2022-10-13T09:49:43.621Z,29.32
2022-10-13T09:52:14.246Z,28.06
2022-10-13T09:54:41.747Z,25.59
2022-10-13T09:57:24.786Z,24.35
2022-10-13T10:00:10.656Z,25.66
2022-10-13T10:02:48.680Z,22.34
2022-10-13T10:05:38.251Z,23.53
2022-10-13T10:08:33.680Z,23.74
2022-10-13T10:11:28.821Z,25.14
2022-10-13T10:13:57.910Z,25.53
2022-10-13T10:16:38.753Z,24.63
2022-10-13T10:19:18.085Z,24.00
2022-10-13T10:21:55.881Z,24.12
2022-10-13T10:24:45.498Z,23.54
2022-10-13T10:27:26.514Z,26.63
2022-10-13T10:30:12.966Z,27.35
2022-10-13T10:32:51.621Z,26.74
2022-10-13T10:35:49.103Z,27.80
2022-10-13T10:38:36.766Z,25.82
2022-10-13T10:41:37.499Z,26.94
2022-10-13T10:44:12.780Z,28.03
2022-10-13T10:46:48.253Z,27.09
2022-10-13T10:49:23.543Z,24.70
2022-10-13T10:51:51.819Z,26.91
2022-10-13T10:54:24.008Z,28.51
2022-10-13T10:56:58.509Z,28.68
2022-10-13T10:59:31.443Z,28.70
2022-10-13T11:02:15.066Z,28.44
2022-10-13T11:04:44.173Z,26.55
2022-10-13T11:07:23.746Z,26.66
2022-10-13T11:09:54.947Z,24.83
2022-10-13T11:12:25.638Z,27.90
2022-10-13T11:15:11.075Z,26.64
2022-10-13T11:17:41.263Z,25.03
2022-10-13T11:20:21.198Z,26.94
2022-10-13T11:22:57.572Z,27.84
2022-10-13T11:25:40.040Z,28.13
2022-10-13T11:28:28.218Z,26.80
2022-10-13T11:31:17.055Z,25.17
2022-10-13T11:33:45.731Z,26.38
2022-10-13T11:36:32.797Z,25.59
2022-10-13T11:39:26.078Z,25.95
2022-10-13T11:42:02.628Z,27.76
2022-10-13T11:44:51.495Z,25.94
2022-10-13T11:47:29.746Z,26.00
2022-10-13T11:49:57.451Z,28.42
2022-10-13T11:52:40.426Z,26.01
2022-10-13T11:55:19.626Z,26.31
2022-10-13T11:57:48.391Z,25.52
2022-10-13T12:00:19.019Z,25.94
2022-10-13T12:03:22.956Z,25.43
2022-10-13T12:05:52.807Z,27.09
2022-10-13T12:08:23.423Z,27.26
2022-10-13T12:10:57.328Z,26.41
2022-10-13T12:13:30.857Z,25.05
2022-10-13T12:16:06.082Z,25.50
2022-10-13T12:18:38.287Z,26.03
2022-10-13T12:21:20.572Z,24.74
2022-10-13T12:23:53.151Z,26.18
2022-10-13T12:26:24.684Z,23.79
2022-10-13T12:29:14.409Z,23.60
2022-10-13T12:31:48.512Z,25.36
2022-10-13T12:34:19.229Z,25.36
2022-10-13T12:36:55.221Z,24.47
2022-10-13T12:39:25.546Z,26.27
2022-10-13T12:41:54.519Z,27.30
2022-10-13T12:44:26.165Z,27.99
2022-10-13T12:46:58.794Z,27.77
2022-10-13T12:50:14.702Z,27.22
2022-10-13T12:52:42.374Z,25.82
2022-10-13T12:55:19.268Z,27.20
2022-10-13T12:57:49.623Z,26.68
2022-10-13T13:00:20.395Z,26.86
2022-10-13T13:03:03.715Z,25.59
2022-10-13T13:05:38.392Z,25.66
2022-10-13T13:08:29.829Z,26.34
2022-10-13T13:11:20.129Z,26.68
2022-10-13T13:13:48.522Z,28.22
2022-10-13T13:16:16.820Z,29.11
2022-10-13T13:18:45.595Z,29.21
2022-10-13T13:21:16.031Z,28.94
2022-10-13T13:23:51.034Z,28.46
2022-10-13T13:26:23.448Z,29.62
2022-10-13T13:28:53.538Z,30.26
2022-10-13T13:31:24.344Z,33.08
2022-10-13T13:33:53.152Z,34.64
2022-10-13T13:36:26.123Z,33.94
2022-10-13T13:38:54.885Z,35.69
2022-10-13T13:41:24.086Z,34.60
2022-10-13T13:43:51.579Z,34.89
2022-10-13T13:46:25.053Z,34.69
2022-10-13T13:48:52.786Z,32.63
2022-10-13T13:51:20.288Z,32.11
2022-10-13T13:53:48.618Z,36.08
2022-10-13T13:56:19.759Z,37.61
2022-10-13T13:58:47.924Z,38.75
2022-10-13T14:01:15.909Z,39.67
2022-10-13T14:03:43.863Z,40.48
2022-10-13T14:06:19.909Z,41.83
2022-10-13T14:08:47.920Z,42.10
2022-10-13T14:11:16.782Z,41.90
2022-10-13T14:13:44.380Z,42.57
2022-10-13T14:16:17.864Z,43.46
2022-10-13T14:18:45.766Z,41.99
2022-10-13T14:21:13.421Z,41.64
2022-10-13T14:23:45.677Z,42.82
2022-10-13T14:26:14.018Z,43.79
2022-10-13T14:28:43.161Z,43.68
2022-10-13T14:31:11.998Z,43.89
2022-10-13T14:33:41.905Z,44.41
2022-10-13T14:36:10.012Z,45.22
2022-10-13T14:38:37.523Z,44.86
2022-10-13T14:41:06.338Z,45.87
2022-10-13T14:43:33.889Z,45.84
2022-10-13T14:46:05.958Z,45.41
2022-10-13T14:48:35.227Z,45.69
2022-10-13T14:51:10.652Z,45.82
2022-10-13T14:53:43.502Z,46.17
2022-10-13T14:56:27.074Z,47.51
2022-10-13T14:58:57.570Z,46.86
2022-10-13T15:01:33.361Z,46.97
2022-10-13T15:04:01.962Z,46.90
2022-10-13T15:06:31.975Z,47.71
2022-10-13T15:09:00.118Z,47.83
2022-10-13T15:11:27.960Z,47.68
2022-10-13T15:13:56.309Z,48.69
2022-10-13T15:16:27.905Z,48.96
2022-10-13T15:18:56.224Z,49.27
2022-10-13T15:21:24.672Z,49.81
2022-10-13T15:23:52.267Z,49.61
2022-10-13T15:26:20.625Z,50.22
2022-10-13T15:28:50.897Z,52.43
2022-10-13T15:31:21.994Z,52.56
2022-10-13T15:33:52.109Z,54.67
2022-10-13T15:36:25.675Z,55.03
2022-10-13T15:38:53.200Z,55.50
2022-10-13T15:41:23.000Z,55.53
2022-10-13T15:43:52.116Z,58.02
2022-10-13T15:46:26.170Z,58.70
2022-10-13T15:48:55.195Z,61.25
2022-10-13T15:51:24.335Z,60.98
2022-10-13T15:53:52.514Z,62.67
2022-10-13T15:56:20.997Z,62.45
2022-10-13T15:58:48.609Z,63.16
2022-10-13T16:01:17.645Z,64.02
2022-10-13T16:03:45.412Z,64.84
2022-10-13T16:06:14.351Z,65.59
2022-10-13T16:08:51.597Z,66.18
2022-10-13T16:11:21.138Z,67.13
2022-10-13T16:13:50.717Z,66.72
2022-10-13T16:16:19.149Z,67.58
2022-10-13T16:18:46.668Z,68.11
2022-10-13T16:21:19.007Z,68.60
2022-10-13T16:23:47.613Z,68.71
2022-10-13T16:26:17.449Z,68.47
2022-10-13T16:28:46.011Z,69.21
2022-10-13T16:31:15.932Z,69.57
2022-10-13T16:33:45.213Z,69.86
2022-10-13T16:36:15.683Z,69.60
2022-10-13T16:38:44.128Z,70.04
2022-10-13T16:41:14.643Z,70.50
2022-10-13T16:43:42.818Z,70.59
2022-10-13T16:46:13.411Z,71.08
2022-10-13T16:48:42.251Z,71.61
2022-10-13T16:51:13.645Z,71.36
2022-10-13T16:53:41.387Z,72.23
2022-10-13T16:56:09.376Z,72.19
2022-10-13T16:58:36.882Z,73.24
2022-10-13T17:01:11.710Z,72.87
2022-10-13T17:03:39.858Z,72.77
2022-10-13T17:06:07.526Z,72.95
2022-10-13T17:08:35.168Z,73.12
2022-10-13T17:11:05.026Z,73.38
2022-10-13T17:13:33.932Z,73.26
2022-10-13T17:16:01.773Z,73.17
2022-10-13T17:18:29.644Z,73.56
2022-10-13T17:21:02.373Z,73.50
2022-10-13T17:23:31.107Z,73.42
2022-10-13T17:26:04.517Z,73.22
2022-10-13T17:28:33.464Z,74.32
2022-10-13T17:31:05.217Z,73.88
2022-10-13T17:33:35.126Z,73.80
2022-10-13T17:36:07.032Z,74.29
2022-10-13T17:38:35.035Z,74.22
2022-10-13T17:41:05.194Z,74.32
2022-10-13T17:43:34.584Z,74.16
2022-10-13T17:46:35.190Z,75.06
2022-10-13T17:49:01.732Z,74.67
2022-10-13T17:51:29.300Z,74.82
2022-10-13T17:54:00.590Z,75.58
2022-10-13T17:56:29.061Z,75.51
2022-10-13T17:58:57.001Z,75.20
2022-10-13T18:01:31.649Z,75.22
2022-10-13T18:04:02.296Z,76.38
2022-10-13T18:06:37.885Z,75.30
2022-10-13T18:09:18.377Z,75.65
2022-10-13T18:11:50.599Z,75.22
2022-10-13T18:14:24.452Z,75.74
2022-10-13T18:16:52.861Z,76.44
2022-10-13T18:19:21.451Z,76.02
2022-10-13T18:21:49.509Z,75.75
2022-10-13T18:24:17.193Z,76.20
2022-10-13T18:26:44.994Z,76.21
2022-10-13T18:29:12.892Z,75.89
2022-10-13T18:31:41.585Z,75.87
2022-10-13T18:34:15.613Z,76.64
2022-10-13T18:36:47.250Z,76.36
2022-10-13T18:39:17.792Z,75.56
2022-10-13T18:41:49.890Z,76.11
2022-10-13T18:44:18.053Z,76.14
2022-10-13T18:46:48.469Z,76.07
2022-10-13T18:49:19.040Z,75.96
2022-10-13T18:51:46.718Z,76.56
2022-10-13T18:54:14.272Z,75.84
2022-10-13T18:56:41.746Z,76.51
2022-10-13T18:59:10.699Z,76.50
2022-10-13T19:01:39.442Z,76.40
2022-10-13T19:04:07.234Z,76.72
2022-10-13T19:06:35.562Z,76.32
2022-10-13T19:09:05.885Z,76.52
2022-10-13T19:11:37.341Z,76.91
2022-10-13T19:14:07.066Z,76.30
2022-10-13T19:16:39.533Z,76.77
2022-10-13T19:19:10.275Z,76.42
2022-10-13T19:21:39.052Z,76.22
2022-10-13T19:24:09.588Z,76.52
2022-10-13T19:26:37.733Z,76.49
2022-10-13T19:29:11.427Z,76.24
2022-10-13T19:31:40.645Z,77.37
2022-10-13T19:34:10.088Z,77.31
2022-10-13T19:36:43.295Z,77.36
2022-10-13T19:39:19.900Z,76.99
2022-10-13T19:41:48.851Z,76.74
2022-10-13T19:44:18.220Z,77.22
2022-10-13T19:46:47.405Z,77.37
2022-10-13T19:49:17.532Z,77.83
2022-10-13T19:51:46.505Z,77.72
2022-10-13T19:54:14.850Z,77.47
2022-10-13T19:56:47.525Z,77.22
2022-10-13T19:59:17.429Z,78.51
2022-10-13T20:01:45.243Z,78.37
2022-10-13T20:04:18.505Z,77.91
2022-10-13T20:06:47.455Z,77.66
2022-10-13T20:09:24.734Z,78.04
2022-10-13T20:11:55.531Z,78.22
2022-10-13T20:14:24.489Z,78.30
2022-10-13T20:16:59.559Z,77.21
2022-10-13T20:19:27.213Z,77.15
2022-10-13T20:21:54.813Z,77.22
2022-10-13T20:24:23.401Z,76.74
2022-10-13T20:26:53.349Z,76.41
2022-10-13T20:29:23.424Z,76.13
2022-10-13T20:31:50.970Z,75.97
2022-10-13T20:34:18.406Z,76.48
2022-10-13T20:36:45.952Z,75.95
2022-10-13T20:39:13.510Z,76.58
2022-10-13T20:41:42.180Z,75.99
2022-10-13T20:44:10.559Z,76.47
2022-10-13T20:46:38.060Z,75.31
2022-10-13T20:49:13.595Z,76.15
2022-10-13T20:51:42.870Z,75.99
2022-10-13T20:54:12.033Z,76.73
2022-10-13T20:56:39.907Z,76.57
2022-10-13T20:59:10.699Z,76.83
2022-10-13T21:01:38.739Z,76.17
2022-10-13T21:04:06.774Z,76.06
2022-10-13T21:06:35.801Z,75.99
2022-10-13T21:09:05.392Z,76.09
2022-10-13T21:11:33.336Z,76.04
2022-10-13T21:14:06.239Z,75.71
2022-10-13T21:16:34.280Z,76.70
2022-10-13T21:19:01.945Z,76.05
2022-10-13T21:21:31.873Z,75.34
2022-10-13T21:24:01.670Z,75.36
2022-10-13T21:26:31.601Z,76.56
2022-10-13T21:29:00.732Z,77.63
2022-10-13T21:31:29.425Z,77.47
2022-10-13T21:33:56.990Z,77.70
2022-10-13T21:36:32.991Z,78.19
2022-10-13T21:39:03.644Z,78.71
2022-10-13T21:41:31.597Z,78.09
2022-10-13T21:43:59.126Z,78.41
2022-10-13T21:46:32.512Z,77.97
2022-10-13T21:49:06.414Z,77.35
2022-10-13T21:51:37.838Z,77.83
2022-10-13T21:54:13.881Z,78.06
2022-10-13T21:56:42.187Z,76.56
2022-10-13T21:59:12.134Z,76.44
2022-10-13T22:01:39.726Z,77.23
2022-10-13T22:04:14.110Z,76.93
2022-10-13T22:06:42.171Z,76.42
2022-10-13T22:09:09.953Z,76.38
2022-10-13T22:11:39.394Z,76.52
2022-10-13T22:14:12.983Z,75.63
2022-10-13T22:16:46.807Z,75.87
2022-10-13T22:19:15.439Z,75.95
2022-10-13T22:21:45.197Z,76.33
2022-10-13T22:24:16.342Z,76.90
2022-10-13T22:26:45.461Z,75.99
2022-10-13T22:29:15.595Z,76.22
2022-10-13T22:31:43.841Z,76.05
2022-10-13T22:34:13.792Z,75.24
2022-10-13T22:36:44.772Z,75.79
2022-10-13T22:39:13.636Z,75.32
2022-10-13T22:41:41.685Z,77.14
2022-10-13T22:44:09.486Z,77.16
2022-10-13T22:46:38.487Z,76.80
2022-10-13T22:49:09.684Z,76.93
2022-10-13T22:51:37.438Z,77.40
2022-10-13T22:54:05.622Z,76.29
2022-10-13T22:56:34.571Z,76.80
2022-10-13T22:59:05.637Z,76.98
2022-10-13T23:01:33.256Z,77.77
2022-10-13T23:04:00.886Z,77.17
2022-10-13T23:06:30.835Z,77.46
2022-10-13T23:09:02.475Z,77.19
2022-10-13T23:11:30.372Z,77.59
2022-10-13T23:13:57.923Z,77.99
2022-10-13T23:16:26.869Z,78.71
2022-10-13T23:18:55.184Z,77.58
2022-10-13T23:21:28.555Z,78.04
2022-10-13T23:23:58.452Z,77.12
2022-10-13T23:26:26.483Z,76.86
2022-10-13T23:28:56.331Z,77.29
2022-10-13T23:31:24.869Z,77.42
2022-10-13T23:33:52.473Z,77.05
2022-10-13T23:36:24.147Z,77.48
2022-10-13T23:38:56.251Z,77.11
2022-10-13T23:41:24.115Z,77.98
2022-10-13T23:43:51.658Z,77.37
2022-10-13T23:46:19.880Z,76.92
2022-10-13T23:48:47.740Z,76.40
2022-10-13T23:51:19.893Z,76.71
2022-10-13T23:53:47.388Z,77.28
2022-10-13T23:56:16.022Z,78.13
2022-10-13T23:58:44.430Z,77.89
